Tiempo atmosférico en la estación meteorológica de Andújar, Jaén (193 m.)

Fecha
DESCASC
Temp. máxima en grados centígrados (hora)
DESCASC
Temp. mínima en grados centígrados (hora)
DESCASC
Temp. media en grados centígrados
DESCASC
Racha de viento máxima en m/sg (hora)
DESCASC
Velocidad máxima media en intervalos de 10 minutos(hora)
DESCASC
Precipitaciones diarias en mm
DESCASC
Precipitaciones de 00:00 a 06:00 en mm
DESCASC
Precipitaciones de 06:00 a 12:00 en mm
DESCASC
Precipitaciones de 12:00 a 18:00 en mm
DESCASC
Precipitaciones de 18:00 a 24:00 en mm
DESCASC
23-11-2017 23.4 (16:40) 1.3 (03:40) 12.3 4.17 (11:10) 2.78 (11:10) 0 0 0 0 0
22-11-2017 22.6 (16:00) -1.4 (07:10) 10.6 4.44 (11:00) 2.5 (11:00) 0 0 0 0 0
21-11-2017 24.7 (16:20) -0.2 (07:10) 12.3 4.72 (12:00) 3.06 (11:50) 0 0 0 0 0
20-11-2017 24.4 (16:30) 1 (07:50) 12.7 4.72 (12:20) 2.5 (11:20) 0 0 0 0 0
19-11-2017 24.3 (16:50) 0.3 (00:00) 12.3 4.72 (13:00) 2.5 (12:20) 0 0 0 0 0
18-11-2017 23.4 (16:00) 0 (00:00) 11.7 4.44 (11:20) 2.5 (11:10) 0 0 0 0 0
17-11-2017 23 (16:50) -0.5 (-00:0) 11.3 4.17 (13:40) 2.22 (11:10) 0 0 0 0 0
16-11-2017 22.6 (16:30) -0.8 (-00:0) 10.9 4.17 (11:00) 2.5 (11:20) 0 0 0 0 0
15-11-2017 20.9 (16:20) -1.4 (-00:0) 9.7 5.56 (11:00) 3.61 (11:10) 0 0 0 0 0
14-11-2017 16.8 (15:40) 2 (00:00) 9.4 6.39 (10:00) 3.61 (10:10) 0 0 0 0 0
13-11-2017 20.9 (15:20) 1.7 (00:00) 11.3 7.78 (15:20) 4.17 (16:00) 0 0 0 0 0
12-11-2017 23.3 (16:00) 1.6 (00:00) 12.4 3.89 (11:10) 2.22 (10:50) 0 0 0 0 0
11-11-2017 22.6 (15:50) 1.9 (00:00) 12.3 3.89 (12:50) 1.67 (12:00) 0 0 0 0 0
10-11-2017 20.1 (16:30) 0.4 (00:00) 10.3 7.5 (13:20) 4.17 (11:30) 0 0 0 0 0
09-11-2017 17.8 (15:00) 4.2 (00:00) 11 9.17 (12:20) 3.89 (11:40) 0 0 0 0 0
08-11-2017 23.2 (15:40) 2.7 (00:00) 13 4.72 (12:00) 2.22 (11:40) 0 0 0 0 0
07-11-2017 20.4 (15:20) 2.8 (00:00) 11.6 6.67 (11:30) 3.89 (11:40) 0 0 0 0 0
06-11-2017 18.9 (15:50) 5.9 (00:00) 12.4 10.56 (13:00) 5.56 (14:30) 0 0 0 0 0
05-11-2017 20.7 (14:30) 11.4 (00:00) 16.1 5.56 (02:40) 4.17 (02:40) 0 0 0 0 0
04-11-2017 19.4 (15:40) 11.1 (00:00) 15.3 10 (16:00) 6.11 (16:00) 20.1 9 3.4 4.9 2.8
03-11-2017 21.3 (14:40) 9.2 (00:00) 15.2 5.28 (10:20) 3.33 (10:30) 0.7 0 0 0.1 0.6
02-11-2017 23.7 (15:20) 7.6 (06:20) 15.7 4.17 (15:30) 2.5 (15:20) 0 0 0 0 0
01-11-2017 26.8 (16:50) 7.4 (00:00) 17.1 5.28 (11:10) 3.06 (10:50) 0 0 0 0 0
31-10-2017 26.1 (16:30) 6 (00:00) 16.1 3.33 (13:30) 2.78 (21:00) 0 0 0 0 0
30-10-2017 27.4 (16:30) 6.4 (00:00) 16.9 5 (13:10) 2.22 (14:30) 0 0 0 0 0
29-10-2017 28 (16:30) 7.1 (00:00) 17.5 3.89 (15:00) 2.22 (15:00) 0 0 0 0 0
28-10-2017 29.9 (17:20) 7.3 (00:00) 18.6 5.83 (14:50) 3.33 (13:40) 0 0 0 0 0
27-10-2017 32.2 (17:00) 7.4 (00:00) 19.8 4.44 (12:30) 2.5 (11:30) 0 0 0 0 0
26-10-2017 32.1 (17:40) 7.7 (00:00) 19.9 5 (13:10) 2.5 (14:40) 0 0 0 0 0
25-10-2017 -- (--) -- (--) -- -- (--) -- (--) -- -- -- -- --

Gráficas

Temp. máximas Temp. mínimas Temp. medias Precipitaciones Rachas de viento máximas Velocidades máximas media en intervalos de 10 minutos

Datos horarios

Fecha y hora oficial Temperatura (ºC) Velocidad del viento (km/h) Dirección del viento Racha (km/h) Dirección de racha Precipitación (mm) Presión (hPa) Tendencia (hPa) Humedad (%)
2017-11-23 23:00:00 6.8 4 Este 7 Este 0 996.8 0.8 73
2017-11-23 22:00:00 7.8 3 Sudeste 5 Sudeste 0 996.8 1.4 68
2017-11-23 21:00:00 8.3 3 Este 5 Sudeste 0 996.4 1.4 63
2017-11-23 20:00:00 9.7 0 Calma 4 Este 0 996 1.3 55
2017-11-23 19:00:00 10.9 0 Calma 7 Sudeste 0 995.4 0.7 47
2017-11-23 18:00:00 14.3 0 Calma 4 Sur 0 995 0 37
2017-11-23 17:00:00 21 3 Sur 6 Noroeste 0 994.7 -0.8 25
2017-11-23 16:00:00 22.7 0 Calma 7 Este 0 994.7 -1.2 25
2017-11-23 15:00:00 21 3 Este 10 Este 0 995 -1.6 28
2017-11-23 14:00:00 18.8 6 Este 14 Este 0 995.5 -1.4 33
2017-11-23 13:00:00 16.3 9 Este 14 Sudeste 0 995.9 -0.6 38
2017-11-23 12:00:00 13.7 8 Este 15 Sudeste 0 996.6 0.7 47
2017-11-23 11:00:00 9 8 Sudeste 13 Este 0 996.9 1.8 68
2017-11-23 10:00:00 6.6 3 Este 6 Este 0 996.5 2 83
2017-11-23 09:00:00 4.6 0 Calma 4 Sudeste 0 995.9 1.8 92
2017-11-23 08:00:00 3 0 Calma 6 Este 0 995.1 1.5 93
2017-11-23 07:00:00 3 0 Calma 8 Este 0 994.5 1 93
2017-11-23 06:00:00 3.3 3 Este 10 Este 0 994.1 0.6 96
2017-11-23 05:00:00 2.1 2 Sur 5 Este 0 993.6 0.3 95
2017-11-23 04:00:00 1.7 0 Calma 5 Sudoeste 0 993.5 0.2 94
2017-11-23 03:00:00 1.7 0 Calma 6 Este 0 993.5 0.4 93
2017-11-23 02:00:00 2.3 4 Este 7 Oeste 0 993.3 0.5 92
2017-11-23 01:00:00 2.8 0 Calma 5 Este 0 993.3 0.9 89
2017-11-23 00:00:00 3.4 2 Sudeste 5 Este 0 993.1 1.3 85
2017-11-22 23:00:00 4.5 0 Calma 4 Sudeste 0 992.8 1.4 82
2017-11-22 22:00:00 4.2 4 Noroeste 8 Oeste 0 992.4 1.4 76
2017-11-22 21:00:00 6 0 Calma 7 Este 0 991.8 1.4 69
2017-11-22 20:00:00 7.9 3 Este 5 Este 0 991.4 1.2 58
2017-11-22 19:00:00 10.6 2 Este 5 Sudoeste 0 991 0.4 48
2017-11-22 18:00:00 13.7 3 Oeste 6 Oeste 0 990.4 -0.5 38
2017-11-22 17:00:00 20 2 Noroeste 6 Noroeste 0 990.2 -1.5 28
2017-11-22 16:00:00 22.5 0 Calma 5 Nordeste 0 990.6 -1.8 26
2017-11-22 15:00:00 21 3 Nordeste 10 Sudeste 0 990.9 -2.8 28
2017-11-22 14:00:00 19.6 3 Nordeste 16 Sudeste 0 991.7 -2.4 30
2017-11-22 13:00:00 16.5 8 Sudeste 16 Este 0 992.4 -1.6 36
2017-11-22 12:00:00 14.4 3 Sudeste 13 Este 0 993.7 -0.3 43
2017-11-22 11:00:00 10.2 9 Este 16 Este 0 994.1 0.7 57
2017-11-22 10:00:00 4.1 3 Sudeste 11 Este 0 994 0.5 99
2017-11-22 09:00:00 -0.1 0 Calma 5 Este 0 994 0.3 99
2017-11-22 08:00:00 -0.4 3 Este 8 Este 0 993.4 -0.4 99
2017-11-22 07:00:00 -0.7 0 Calma 5 Este 0 993.5 -0.6 99
2017-11-22 06:00:00 0 0 Calma -- -- 0 993.7 -0.7 97
2017-11-22 05:00:00 0.7 0 Calma -- -- 0 993.8 -0.8 96
2017-11-22 04:00:00 1.2 0 Calma 7 Oeste 0 994.1 -1.1 95
2017-11-22 03:00:00 1.7 0 Calma 8 Este 0 994.4 -0.8 94
2017-11-22 02:00:00 1.8 3 Este 6 Oeste 0 994.6 -0.4 91
2017-11-22 01:00:00 2.2 4 Oeste 6 Oeste 0 995.2 0.3 89
2017-11-22 00:00:00 3.4 0 Calma 5 Este 0 995.2 0.1 87
2017-11-21 23:00:00 3.9 0 Calma 5 Sudeste 0 995 0.2 82
2017-11-21 22:00:00 5 0 Calma 3 Este 0 994.9 0.4 76
2017-11-21 21:00:00 6.2 0 Calma 13 Este 0 995.1 0.9 66
2017-11-21 20:00:00 7.9 2 Sudeste 6 Este 0 994.8 0.4 55
2017-11-21 19:00:00 10.8 3 Sudoeste 5 Sudoeste 0 994.5 -0.4 44
2017-11-21 18:00:00 15.2 4 Sudoeste 5 Sudoeste 0 994.2 -1.2 33
2017-11-21 17:00:00 23.8 0 Calma 4 Sudoeste 0 994.4 -1.8 22
2017-11-21 16:00:00 24.1 2 Sudeste 8 Este 0 994.9 -2.2 23
2017-11-21 15:00:00 21.8 5 Este 13 Sudeste 0 995.4 -2.9 25
2017-11-21 14:00:00 20 6 Este 16 Este 0 996.2 -2.6 28
2017-11-21 13:00:00 17.9 8 Sudeste 16 Sudeste 0 997.1 -1.9 32
2017-11-21 12:00:00 14.7 10 Este 17 Este 0 998.3 -0.6 40
2017-11-21 11:00:00 10.9 9 Este 15 Este 0 998.8 0 55
2017-11-21 10:00:00 5.5 8 Este 13 Este 0 999 0.5 88
2017-11-21 09:00:00 1.6 3 Este 5 Este 0 998.9 0.4 99
2017-11-21 08:00:00 0.3 0 Calma 3 Sudeste 0 998.8 0.6 99
2017-11-21 07:00:00 0 0 Calma 4 Sudeste 0 998.5 0 99
2017-11-21 06:00:00 0.4 3 Sudeste 5 Este 0 998.5 -0.1 99
2017-11-21 05:00:00 0.9 0 Calma 4 Este 0 998.2 -0.2 97
2017-11-21 04:00:00 1.1 0 Calma 3 Sudeste 0 998.5 0 96
2017-11-21 03:00:00 1.9 0 Calma 4 Este 0 998.6 0.2 95
2017-11-21 02:00:00 2 0 Calma 4 Este 0 998.4 0.3 94
2017-11-21 01:00:00 3.4 0 Calma 3 Este 0 998.5 0.6 91
2017-11-21 00:00:00 3.5 2 Este 6 Este 0 998.4 0.8 87
2017-11-20 23:00:00 4.9 3 Este 6 Este 0 998.1 0.8 84
2017-11-20 22:00:00 5.4 0 Calma 7 Este 0 997.9 1.1 78
2017-11-20 21:00:00 7.3 4 Este 6 Este 0 997.6 1.3 71
2017-11-20 20:00:00 8.9 0 Calma 5 Sudoeste 0 997.3 0.8 62
2017-11-20 19:00:00 11 3 Oeste 4 Sudoeste 0 996.8 0.2 48
2017-11-20 18:00:00 15.5 0 Calma 5 Sudoeste 0 996.3 -0.6 36
2017-11-20 17:00:00 23.8 0 Calma 5 Este 0 996.5 -1.3 25
2017-11-20 16:00:00 24 2 Este 11 Este 0 996.6 -2.2 25
2017-11-20 15:00:00 22.5 4 Este 13 Este 0 996.9 -2.7 27
2017-11-20 14:00:00 21.1 5 Este 15 Este 0 997.8 -2 31
2017-11-20 13:00:00 18.5 7 Este 17 Este 0 998.8 -0.6 36
2017-11-20 12:00:00 16.1 5 Este 16 Este 0 999.6 0.2 43
2017-11-20 11:00:00 11.8 8 Este 13 Este 0 999.8 1 57
2017-11-20 10:00:00 5.7 7 Este 11 Este 0 999.4 0.9 94
2017-11-20 09:00:00 1.6 0 Calma 3 Este 0 999.4 1.5 99
2017-11-20 08:00:00 1.2 0 Calma 8 Sudeste 0 998.8 1.1 98
2017-11-20 07:00:00 1.8 0 Calma 4 Este 0 998.5 0.8 97
2017-11-20 06:00:00 1.9 0 Calma 5 Oeste 0 997.9 0.1 95
2017-11-20 05:00:00 2.5 0 Calma 9 Este 0 997.7 -0.2 94
2017-11-20 04:00:00 3.9 5 Este 8 Este 0 997.7 -0.3 94
2017-11-20 03:00:00 3.8 3 Este 13 Este 0 997.8 -0.2 93
2017-11-20 02:00:00 3.5 3 Sudeste 5 Este 0 997.9 0 93
2017-11-20 01:00:00 3.4 0 Calma 0 Calma 0 998 0.7 89
2017-11-20 00:00:00 4.2 0 Calma 5 Oeste 0 998 1.2 84
2017-11-19 23:00:00 5.1 2 Sudeste 7 Este 0 997.9 1.7 81
2017-11-19 22:00:00 6.3 3 Sudeste 5 Este 0 997.3 1.9 75
2017-11-19 21:00:00 7.4 5 Este 5 Este 0 996.8 2 68
2017-11-19 20:00:00 9.1 0 Calma 5 Sudeste 0 996.2 1.6 58
2017-11-19 19:00:00 10.9 3 Sudoeste 6 Sur 0 995.4 0.8 47
2017-11-19 18:00:00 15.3 0 Calma 5 Sudoeste 0 994.8 -0.1 33
2017-11-19 17:00:00 23.7 2 Sudeste 8 Este 0 994.6 -0.9 24
2017-11-19 16:00:00 23 3 Este 10 Este 0 994.6 -1.9 25
2017-11-19 15:00:00 22.6 3 Sudeste 13 Este 0 994.9 -2.4 27
2017-11-19 14:00:00 19.7 7 Este 15 Este 0 995.5 -2.1 33
2017-11-19 13:00:00 17.9 8 Este 17 Este 0 996.5 -1.1 37
2017-11-19 12:00:00 14.9 8 Este 14 Este 0 997.3 0 44
2017-11-19 11:00:00 10.8 7 Este 12 Este 0 997.6 0.8 61
2017-11-19 10:00:00 4.9 2 Sudeste 6 Sudeste 0 997.6 1.6 99
2017-11-19 09:00:00 2.2 0 Calma 3 Sudeste 0 997.3 1.7 99
2017-11-19 08:00:00 0.8 0 Calma 4 Oeste 0 996.8 1.4 99
2017-11-19 07:00:00 1.1 2 Sudeste 5 Este 0 996 0.6 99
2017-11-19 06:00:00 1.9 0 Calma 3 Sudoeste 0 995.6 0.2 98
2017-11-19 05:00:00 1.8 0 Calma 3 Sudoeste 0 995.4 0.2 97
2017-11-19 04:00:00 2.7 0 Calma 4 Sudeste 0 995.4 0.1 96
2017-11-19 03:00:00 3.3 0 Calma 5 Sudeste 0 995.4 -0.1 95
2017-11-19 02:00:00 3.1 0 Calma 4 Este 0 995.2 -0.1 93
2017-11-19 01:00:00 3.5 0 Calma 4 Sudeste 0 995.3 0.2 91
2017-11-19 00:00:00 3.8 0 Calma 6 Sudeste 0 995.5 0.9 88
2017-11-18 23:00:00 4.2 0 Calma 4 Este 0 995.3 1.3 85
2017-11-18 22:00:00 5.7 2 Sudeste 4 Este 0 995.1 1.5 80
2017-11-18 21:00:00 7.1 3 Sudeste 7 Sudeste 0 994.6 1.4 72
2017-11-18 20:00:00 8.3 0 Calma 3 Sudoeste 0 994 1 64
2017-11-18 19:00:00 10.8 2 Sudoeste 5 Sur 0 993.6 0.7 53
2017-11-18 18:00:00 14.6 3 Sudoeste 5 Oeste 0 993.2 0 38
2017-11-18 17:00:00 22.5 0 Calma 5 Norte 0 993 -0.8 26
2017-11-18 16:00:00 23.2 0 Calma 8 Este 0 992.9 -1.8 26
2017-11-18 15:00:00 22 3 Sudeste 11 Este 0 993.2 -2.3 28
2017-11-18 14:00:00 19.9 4 Nordeste 13 Este 0 993.8 -2.2 33
2017-11-18 13:00:00 18.9 3 Sudeste 14 Este 0 994.7 -1.4 36
2017-11-18 12:00:00 15.1 6 Sudeste 16 Este 0 995.5 -0.8 44
2017-11-18 11:00:00 10.8 8 Este 15 Este 0 996 0.2 62
2017-11-18 10:00:00 4.8 5 Este 11 Sudeste 0 996.1 0.8 99
2017-11-18 09:00:00 1.3 0 Calma 3 Este 0 996.3 1.2 99
2017-11-18 08:00:00 0.1 0 Calma 3 Este 0 995.8 0.8 99
2017-11-18 07:00:00 0.2 3 Sudeste 6 Este 0 995.3 0.2 98
2017-11-18 06:00:00 1.3 0 Calma 2 Sudoeste 0 995.1 0 98
2017-11-18 05:00:00 1.4 0 Calma 3 Oeste 0 995 -0.3 96
2017-11-18 04:00:00 1.6 0 Calma 4 Este 0 995.1 -0.3 95
2017-11-18 03:00:00 2.4 0 Calma 3 Sudeste 0 995.1 -0.4 94
2017-11-18 02:00:00 2.7 3 Este 6 Este 0 995.3 0 91
2017-11-18 01:00:00 3.4 2 Este 5 Este 0 995.4 0.7 90
2017-11-18 00:00:00 4.2 0 Calma 4 Sudeste 0 995.5 1.2 86
2017-11-17 23:00:00 4.8 0 Calma 5 Sudeste 0 995.3 1.3 81
2017-11-17 22:00:00 5.7 0 Calma 6 Sudeste 0 994.7 1.1 77
2017-11-17 21:00:00 7.2 0 Calma 8 Este 0 994.3 1.2 68
2017-11-17 20:00:00 8.7 3 Sudeste 5 Sudeste 0 994 1 58
2017-11-17 19:00:00 10.7 0 Calma 5 Oeste 0 993.6 0.3 48
2017-11-17 18:00:00 14.7 4 Sudoeste 5 Sudoeste 0 993.1 -0.8 36
2017-11-17 17:00:00 22.1 0 Calma 5 Nordeste 0 993 -1.9 25
2017-11-17 16:00:00 22.2 2 Nordeste 12 Este 0 993.3 -2.4 25
2017-11-17 15:00:00 21.3 3 Este 10 Sudeste 0 993.9 -2.7 27
2017-11-17 14:00:00 18.8 6 Este 15 Este 0 994.9 -2.1 32
2017-11-17 13:00:00 17.1 4 Este 10 Este 0 995.7 -1.4 36
2017-11-17 12:00:00 14.1 5 Este 14 Este 0 996.6 -0.4 45
2017-11-17 11:00:00 9.8 6 Este 11 Este 0 997 0.4 66
2017-11-17 10:00:00 4.1 2 Sudeste 5 Sudeste 0 997.1 0.9 99
2017-11-17 09:00:00 1.2 0 Calma 4 Nordeste 0 997 0.7 99
2017-11-17 08:00:00 0 0 Calma 3 Sudeste 0 996.6 0.5 98
2017-11-17 07:00:00 0.4 0 Calma 3 Este 0 996.2 0.1 97
2017-11-17 06:00:00 0.3 0 Calma 3 Sudeste 0 996.3 0.3 96
2017-11-17 05:00:00 1 0 Calma 6 Este 0 996.1 0.2 95
2017-11-17 04:00:00 1.6 0 Calma 3 Sudeste 0 996.1 -0.1 94
2017-11-17 03:00:00 2.2 0 Calma 0 Calma 0 996 -0.1 93
2017-11-17 02:00:00 2.1 0 Calma 2 Sudoeste 0 995.9 0.1 90
2017-11-17 01:00:00 3.3 0 Calma 8 Este 0 996.2 0.7 85
2017-11-17 00:00:00 4.9 5 Este 12 Este 0 996.1 1 84
2017-11-16 23:00:00 3.9 5 Este 7 Este 0 995.8 1.3 81
2017-11-16 22:00:00 5.1 3 Sudeste 5 Este 0 995.5 1.4 75
2017-11-16 21:00:00 6.3 0 Calma 4 Este 0 995.1 1.4 68
2017-11-16 20:00:00 7.9 2 Este 5 Este 0 994.5 1 58
2017-11-16 19:00:00 10.6 3 Sudoeste 6 Sudoeste 0 994.1 0.4 45
2017-11-16 18:00:00 14.1 4 Sudoeste 6 Sudoeste 0 993.7 -0.3 34
2017-11-16 17:00:00 21.3 2 Sudeste 6 Este 0 993.5 -1.2 23
2017-11-16 16:00:00 22.2 0 Calma 7 Noroeste 0 993.7 -2 23
2017-11-16 15:00:00 20.9 3 Nordeste 11 Este 0 994 -2.6 25
2017-11-16 14:00:00 19.1 3 Este 10 Sudeste 0 994.7 -2.2 30
2017-11-16 13:00:00 16.6 4 Este 13 Este 0 995.7 -1.2 34
2017-11-16 12:00:00 13.8 6 Sudeste 15 Este 0 996.6 0.2 42
2017-11-16 11:00:00 9.9 7 Este 15 Este 0 996.9 0.8 58
2017-11-16 10:00:00 4.8 4 Este 10 Este 0 996.9 1.4 99
2017-11-16 09:00:00 1.1 0 Calma 6 Este 0 996.4 1.1 99
2017-11-16 08:00:00 -0.5 0 Calma 5 Este 0 996.1 1.1 99
2017-11-16 07:00:00 0.3 0 Calma 4 Este 0 995.5 0.5 99
2017-11-16 06:00:00 1 0 Calma 3 Sudeste 0 995.3 0.3 99
2017-11-16 05:00:00 1.2 0 Calma -- -- 0 995 0.1 97
2017-11-16 04:00:00 1.5 0 Calma 0 Calma 0 995 -0.1 96
2017-11-16 03:00:00 1.5 0 Calma 3 Sudeste 0 995 -0.2 94
2017-11-16 02:00:00 1.8 0 Calma 5 Este 0 994.9 0 93
2017-11-16 01:00:00 2.6 0 Calma 5 Sudeste 0 995.1 0.3 91
2017-11-16 00:00:00 2.8 0 Calma 6 Este 0 995.2 0.8 88
2017-11-15 23:00:00 4 2 Sudeste 4 Sudeste 0 994.9 0.8 85
2017-11-15 22:00:00 4.9 0 Calma 6 Sudeste 0 994.8 1 79
2017-11-15 21:00:00 5.9 0 Calma 6 Este 0 994.4 0.9 72
2017-11-15 20:00:00 7.8 0 Calma 5 Oeste 0 994.1 0.6 64
2017-11-15 19:00:00 9.8 0 Calma 4 Norte 0 993.8 0.1 54
2017-11-15 18:00:00 13.3 3 Sur 5 Sudoeste 0 993.5 -0.4 38
2017-11-15 17:00:00 20 4 Sur 9 Sur 0 993.5 -1.4 28
2017-11-15 16:00:00 20 0 Calma 8 Este 0 993.7 -2 28
2017-11-15 15:00:00 20 3 Sur 8 Este 0 993.9 -3.1 29
2017-11-15 14:00:00 18 0 Calma 12 Este 0 994.9 -2.6 32
2017-11-15 13:00:00 16.1 4 Este 14 Sudeste 0 995.7 -1.9 34
2017-11-15 12:00:00 12.7 9 Sudeste 20 Este 0 997 -0.5 42
2017-11-15 11:00:00 9.6 12 Este 20 Este 0 997.5 0.5 54
2017-11-15 10:00:00 4 6 Este 9 Este 0 997.6 1.2 94
2017-11-15 09:00:00 0.8 0 Calma 6 Este 0 997.5 1.5 99
2017-11-15 08:00:00 -0.9 0 Calma 5 Este 0 997 1.5 98
2017-11-15 07:00:00 -0.8 0 Calma 7 Este 0 996.4 0.6 97
2017-11-15 06:00:00 -0.3 0 Calma -- -- 0 996 0.5 96
2017-11-15 05:00:00 -0.1 0 Calma 5 Sudeste 0 995.5 0.2 95
2017-11-15 04:00:00 0.2 0 Calma 7 Este 0 995.8 0.4 93
2017-11-15 03:00:00 1 3 Sudeste 5 Sudeste 0 995.5 0.4 93
2017-11-15 02:00:00 1.4 0 Calma 7 Este 0 995.3 0.4 90
2017-11-15 01:00:00 1.7 3 Sudeste 8 Oeste 0 995.4 0.8 87
2017-11-15 00:00:00 2.6 2 Noroeste 8 Oeste 0 995.1 1 80
2017-11-14 23:00:00 2.5 2 Este 5 Sudeste 0 994.9 1.1 77
2017-11-14 22:00:00 3.4 2 Oeste 7 Sudeste 0 994.6 1.2 71
2017-11-14 21:00:00 4.9 4 Este 6 Este 0 994.1 1.4 65
2017-11-14 20:00:00 6 0 Calma 4 Este 0 993.8 1.2 55
2017-11-14 19:00:00 8.4 0 Calma 7 Este 0 993.4 0.7 44
2017-11-14 18:00:00 11.9 3 Sudeste 15 Sudeste 0 992.7 -0.4 35
2017-11-14 17:00:00 15.9 10 Este 20 Este 0 992.6 -1.4 31
2017-11-14 16:00:00 16.3 10 Este 18 Este 0 992.7 -2 31
2017-11-14 15:00:00 16.1 8 Sudeste 19 Este 0 993.1 -2.4 33
2017-11-14 14:00:00 15 9 Este 20 Sudeste 0 994 -1.8 34
2017-11-14 13:00:00 13.9 9 Sudeste 22 Este 0 994.7 -1.2 37
2017-11-14 12:00:00 12.9 9 Este 19 Este 0 995.5 -0.4 40
2017-11-14 11:00:00 10.5 8 Este 22 Este 0 995.8 0.2 47
2017-11-14 10:00:00 7.7 13 Este 23 Este 0 995.9 0.7 56
2017-11-14 09:00:00 5.1 4 Sudeste 13 Este 0 995.9 0.8 69
2017-11-14 08:00:00 2.2 8 Este 10 Este 0 995.6 0.6 73
2017-11-14 07:00:00 3.3 4 Sudeste 11 Sudeste 0 995.2 0.2 65
2017-11-14 06:00:00 4.5 8 Este 13 Este 0 995.1 0 62
2017-11-14 05:00:00 4.9 8 Sudeste 14 Este 0 995 -0.1 61
2017-11-14 04:00:00 5.3 2 Sudeste 14 Sudeste 0 995 -0.1 60
2017-11-14 03:00:00 7.1 8 Este 15 Este 0 995.1 0.2 60
2017-11-14 02:00:00 5.1 6 Este 10 Este 0 995.1 0.5 68
2017-11-14 01:00:00 5.5 3 Este 9 Sudeste 0 995.1 0.8 62
2017-11-14 00:00:00 7.8 4 Este 10 Sur 0 994.9 0.9 55
2017-11-13 23:00:00 8.3 4 Sudeste 9 Este 0 994.6 0.8 54
2017-11-13 22:00:00 9.9 4 Este 11 Sudeste 0 994.3 1.3 48
2017-11-13 21:00:00 10.3 6 Este 9 Sudeste 0 994 1.9 51
2017-11-13 20:00:00 11.9 4 Sudeste 13 Este 0 993.8 2.3 45
2017-11-13 19:00:00 14 5 Sudeste 13 Nordeste 0 993 1.4 38
2017-11-13 18:00:00 17.1 7 Este 21 Este 0 992.1 0.2 33
2017-11-13 17:00:00 20.3 6 Nordeste 25 Este 0 991.5 -1 31
2017-11-13 16:00:00 20 15 Este 28 Sudeste 0 991.6 -1.8 33
2017-11-13 15:00:00 20.3 8 Este 20 Este 0 991.9 -2.5 33
2017-11-13 14:00:00 19.8 6 Este 15 Sudeste 0 992.5 -2.6 34
2017-11-13 13:00:00 18.7 7 Este 15 Este 0 993.4 -1.8 37
2017-11-13 12:00:00 16.1 0 Calma 8 Este 0 994.4 -0.9 51
2017-11-13 11:00:00 11.9 2 Este 10 Sudeste 0 995.1 0.3 87
2017-11-13 10:00:00 5.9 0 Calma 6 Este 0 995.2 0.8 99
2017-11-13 09:00:00 4 0 Calma 3 Este 0 995.3 0.6 99
2017-11-13 08:00:00 2.1 0 Calma 3 Oeste 0 994.8 0.2 99
2017-11-13 07:00:00 2.7 0 Calma 8 Este 0 994.4 -0.5 99
2017-11-13 06:00:00 3.1 0 Calma 6 Este 0 994.7 -0.4 99
2017-11-13 05:00:00 2.8 0 Calma 5 Este 0 994.6 -0.5 99
2017-11-13 04:00:00 3.3 0 Calma 0 Calma 0 994.9 -0.6 99
2017-11-13 03:00:00 3.6 0 Calma 3 Este 0 995.1 -0.2 98
2017-11-13 02:00:00 4.2 0 Calma 5 Sudeste 0 995.1 -0.3 97
2017-11-13 01:00:00 4.9 0 Calma 4 Sudeste 0 995.5 0.2 95
2017-11-13 00:00:00 6 0 Calma 6 Este 0 995.3 0.1 94
2017-11-12 23:00:00 7 0 Calma 6 Sur 0 995.4 0.3 91
2017-11-12 22:00:00 8.1 0 Calma 7 Sudeste 0 995.3 0.4 86
2017-11-12 21:00:00 9.4 3 Sudeste 5 Este 0 995.2 0.8 81
2017-11-12 20:00:00 10.8 0 Calma 3 Noroeste 0 995.1 0.7 70
2017-11-12 19:00:00 13.1 0 Calma 5 Sudoeste 0 994.9 0.2 58
2017-11-12 18:00:00 16.2 3 Sudoeste 8 Sudoeste 0 994.4 -0.8 43
2017-11-12 17:00:00 22.4 7 Oeste 11 Oeste 0 994.4 -1.8 30
2017-11-12 16:00:00 22.9 3 Sudoeste 11 Sudoeste 0 994.7 -2.5 29
2017-11-12 15:00:00 22.3 2 Sudoeste 9 Sudoeste 0 995.2 -3.1 32
2017-11-12 14:00:00 21.2 0 Calma 7 Sudeste 0 996.2 -2.6 36
2017-11-12 13:00:00 18.7 0 Calma 10 Este 0 997.2 -2.3 41
2017-11-12 12:00:00 15.2 6 Este 14 Este 0 998.3 -1.5 51
2017-11-12 11:00:00 11.8 8 Este 14 Este 0 998.8 -0.7 70
2017-11-12 10:00:00 6.2 0 Calma 4 Sudeste 0 999.5 0.2 99
2017-11-12 09:00:00 3.7 0 Calma 4 Este 0 999.8 0.6 99
2017-11-12 08:00:00 2.4 0 Calma 3 Sudeste 0 999.5 0.3 99
2017-11-12 07:00:00 2.6 0 Calma 3 Sudeste 0 999.3 0 99
2017-11-12 06:00:00 2.7 0 Calma 5 Este 0 999.2 -0.4 99
2017-11-12 05:00:00 3.2 2 Sudeste 6 Este 0 999.2 -0.5 99
2017-11-12 04:00:00 3.6 0 Calma 6 Este 0 999.3 -0.6 99
2017-11-12 03:00:00 4.5 0 Calma 5 Este 0 999.6 -0.8 98
2017-11-12 02:00:00 4.6 0 Calma 4 Este 0 999.7 -0.6 97
2017-11-12 01:00:00 5 0 Calma -- -- 0 999.9 -0.6 95
2017-11-12 00:00:00 5.6 0 Calma 5 Este 0 1000.4 0.1 93
2017-11-11 23:00:00 6.5 2 Este 6 Este 0 1000.3 0.2 91
2017-11-11 22:00:00 7.3 0 Calma 7 Este 0 1000.5 0.6 87
2017-11-11 21:00:00 8.7 0 Calma 8 Este 0 1000.3 0.5 82
2017-11-11 20:00:00 10 2 Sudeste 5 Sudeste 0 1000.1 0.5 74
2017-11-11 19:00:00 11.8 0 Calma 5 Sudoeste 0 999.9 -0.1 61
2017-11-11 18:00:00 16 4 Sudoeste 6 Este 0 999.8 -0.8 43
2017-11-11 17:00:00 20.7 3 Este 11 Sudeste 0 999.6 -1.7 35
2017-11-11 16:00:00 22 3 Sudeste 10 Sudoeste 0 1000 -2.4 32
2017-11-11 15:00:00 21.1 3 Sudeste 9 Sudeste 0 1000.6 -2.9 35
2017-11-11 14:00:00 20.2 0 Calma 13 Sudeste 0 1001.3 -3 37
2017-11-11 13:00:00 18.8 3 Este 14 Este 0 1002.4 -2 43
2017-11-11 12:00:00 15.7 6 Este 13 Este 0 1003.5 -0.9 52
2017-11-11 11:00:00 13.2 3 Nordeste 7 Este 0 1004.3 0.3 77
2017-11-11 10:00:00 7.2 2 Este 6 Este 0 1004.4 0.6 99
2017-11-11 09:00:00 4.1 0 Calma 7 Sudeste 0 1004.4 0.7 99
2017-11-11 08:00:00 2.3 3 Sudeste 6 Este 0 1004 0.4 99
2017-11-11 07:00:00 2.3 3 Sudeste 5 Sudeste 0 1003.8 0.3 99
2017-11-11 06:00:00 2.2 2 Sudeste 8 Este 0 1003.7 0 97
2017-11-11 05:00:00 3.2 0 Calma 4 Sudeste 0 1003.6 -0.4 97
2017-11-11 04:00:00 3.3 2 Oeste 7 Noroeste 0 1003.5 -0.4 96
2017-11-11 03:00:00 4.2 0 Calma 6 Este 0 1003.7 -0.2 95
2017-11-11 02:00:00 3.8 0 Calma 8 Este 0 1004 0.2 93
2017-11-11 01:00:00 5.2 4 Sudeste 8 Este 0 1003.9 0.3 91
2017-11-11 00:00:00 5.5 3 Este 5 Sudeste 0 1003.9 0.8 88
2017-11-10 23:00:00 6.4 0 Calma 4 Este 0 1003.8 0.8 83
2017-11-10 22:00:00 7.5 0 Calma 4 Sudoeste 0 1003.6 0.9 77
2017-11-10 21:00:00 8.7 0 Calma 9 Noroeste 0 1003.1 1 71
2017-11-10 20:00:00 9.6 0 Calma 10 Noroeste 0 1003 0.9 62
2017-11-10 19:00:00 12.1 0 Calma 8 Este 0 1002.7 0.8 51
2017-11-10 18:00:00 15.3 6 Este 24 Nordeste 0 1002.1 -0.1 39
2017-11-10 17:00:00 18.7 9 Nordeste 24 Nordeste 0 1002.1 -0.9 33
2017-11-10 16:00:00 18.7 5 Este 15 Este 0 1001.9 -1.6 33
2017-11-10 15:00:00 18.1 5 Este 16 Este 0 1002.2 -2.1 33
2017-11-10 14:00:00 16.7 9 Sudeste 27 Sudeste 0 1003 -1.6 34
2017-11-10 13:00:00 15.7 9 Sudeste 24 Este 0 1003.5 -0.8 37
2017-11-10 12:00:00 13.4 12 Este 26 Este 0 1004.3 0.4 41
2017-11-10 11:00:00 12.5 8 Este 24 Este 0 1004.6 1 46
2017-11-10 10:00:00 7.9 6 Sudeste 12 Sudeste 0 1004.3 1.1 85
2017-11-10 09:00:00 2.5 3 Noroeste 5 Oeste 0 1003.9 0.7 95
2017-11-10 08:00:00 0.8 0 Calma 4 Norte 0 1003.6 1 94
2017-11-10 07:00:00 1.9 0 Calma 5 Este 0 1003.2 0.8 92
2017-11-10 06:00:00 2.4 0 Calma 9 Este 0 1003.2 0.7 88
2017-11-10 05:00:00 3.2 0 Calma 4 Sudeste 0 1002.6 0.5 87
2017-11-10 04:00:00 4.3 0 Calma 9 Sudeste 0 1002.4 0.2 84
2017-11-10 03:00:00 4.4 2 Sudeste 8 Este 0 1002.5 0.3 81
2017-11-10 02:00:00 5.3 0 Calma 6 Sur 0 1002.1 0.4 77
2017-11-10 01:00:00 5.6 3 Este 10 Este 0 1002.2 0.7 70
2017-11-10 00:00:00 6.3 0 Calma 6 Este 0 1002.2 1.3 68
2017-11-09 23:00:00 7.2 2 Sur 6 Este 0 1001.7 1 64
2017-11-09 22:00:00 8 0 Calma 5 Sudeste 0 1001.5 1.5 60
2017-11-09 21:00:00 8.7 3 Sudeste 8 Sudeste 0 1000.9 1.8 55
2017-11-09 20:00:00 10.4 0 Calma 7 Norte 0 1000.7 2 48
2017-11-09 19:00:00 12.3 5 Nordeste 10 Norte 0 1000 1.5 43
2017-11-09 18:00:00 14.2 5 Nordeste 17 Nordeste 0 999.1 0.3 37
2017-11-09 17:00:00 16.7 6 Este 21 Este 0 998.7 -0.6 33
2017-11-09 16:00:00 17.5 7 Este 27 Este 0 998.5 -1.5 33
2017-11-09 15:00:00 17.3 7 Este 28 Este 0 998.8 -1.8 33
2017-11-09 14:00:00 16 11 Este 27 Este 0 999.3 -1.6 35
2017-11-09 13:00:00 16.1 8 Este 33 Este 0 1000 -1 37
2017-11-09 12:00:00 14.8 12 Nordeste 32 Nordeste 0 1000.6 0.1 40
2017-11-09 11:00:00 14.2 9 Este 26 Este 0 1000.9 1 44
2017-11-09 10:00:00 10.1 4 Este 12 Sudeste 0 1001 1.6 61
2017-11-09 09:00:00 6.9 2 Sudeste 17 Este 0 1000.5 1.6 71
2017-11-09 08:00:00 5.6 4 Sudeste 13 Este 0 999.9 1 74
2017-11-09 07:00:00 5.5 3 Sudeste 14 Sudeste 0 999.4 0.9 71
2017-11-09 06:00:00 6.3 3 Este 17 Sudeste 0 998.9 0.8 66
2017-11-09 05:00:00 7.4 6 Sudeste 12 Sudeste 0 998.9 0.8 65
2017-11-09 04:00:00 8.4 6 Este 15 Este 0 998.5 0.5 61
2017-11-09 03:00:00 9.5 10 Este 18 Este 0 998.1 0.2 60
2017-11-09 02:00:00 10.5 2 Sudeste 10 Este 0 998.1 0.2 60
2017-11-09 01:00:00 11.1 5 Sudeste 8 Sudeste 0 998 0.7 63
2017-11-09 00:00:00 11.5 3 Este 10 Sudeste 0 997.9 1.5 58
2017-11-08 23:00:00 12.4 4 Este 13 Este 0 997.9 1.8 54
2017-11-08 22:00:00 13 5 Sudeste 13 Sudeste 0 997.3 1.8 54
2017-11-08 21:00:00 13.7 8 Este 15 Sudeste 0 996.4 1.8 51
2017-11-08 20:00:00 12.4 3 Sudeste 8 Sur 0 996.1 1.5 61
2017-11-08 19:00:00 12.9 2 Sudoeste 6 Sudoeste 0 995.5 0.7 53
2017-11-08 18:00:00 16.4 2 Sudoeste 7 Oeste 0 994.6 -0.7 38
2017-11-08 17:00:00 21.2 4 Oeste 12 Sudeste 0 994.6 -1 27
2017-11-08 16:00:00 22.8 2 Sur 11 Sudeste 0 994.8 -2.1 26
2017-11-08 15:00:00 21.4 4 Sudeste 14 Este 0 995.3 -2.3 30
2017-11-08 14:00:00 19.5 6 Este 12 Este 0 995.6 -2.4 37
2017-11-08 13:00:00 17.6 5 Sudeste 15 Este 0 996.9 -1.3 43
2017-11-08 12:00:00 15.1 8 Sudeste 17 Este 0 997.6 -0.4 47
2017-11-08 11:00:00 12.4 3 Este 13 Sudeste 0 998 0.5 62
2017-11-08 10:00:00 7.8 6 Este 13 Este 0 998.2 1 94
2017-11-08 09:00:00 4.9 4 Este 9 Sudeste 0 998 1.1 99
2017-11-08 08:00:00 3.1 0 Calma 8 Sudeste 0 997.5 0.9 99
2017-11-08 07:00:00 3.2 0 Calma 7 Este 0 997.2 0.9 99
2017-11-08 06:00:00 4.3 5 Este 9 Este 0 996.9 0.4 99
2017-11-08 05:00:00 3.8 4 Este 8 Este 0 996.6 -0.1 99
2017-11-08 04:00:00 3.1 0 Calma 4 Este 0 996.3 -0.6 99
2017-11-08 03:00:00 4.2 2 Sudeste 4 Este 0 996.5 -0.2 99
2017-11-08 02:00:00 4.1 0 Calma 6 Este 0 996.7 0.3 98
2017-11-08 01:00:00 4.4 0 Calma 5 Sudeste 0 996.9 0.9 97
2017-11-08 00:00:00 4.9 4 Sudeste 6 Este 0 996.7 0.9 95
2017-11-07 23:00:00 5.6 0 Calma 7 Este 0 996.4 1.1 93
2017-11-07 22:00:00 6.3 5 Sudeste 10 Este 0 996 0.9 91
2017-11-07 21:00:00 7.5 0 Calma 3 Este 0 995.8 1.3 85
2017-11-07 20:00:00 9.1 0 Calma 6 Oeste 0 995.3 0.8 75
2017-11-07 19:00:00 10.6 2 Sudoeste 4 Sudoeste 0 995.1 0.7 62
2017-11-07 18:00:00 15 3 Sur 8 Sudeste 0 994.5 0 41
2017-11-07 17:00:00 19.3 5 Este 12 Este 0 994.5 -0.5 31
2017-11-07 16:00:00 19.4 6 Este 17 Este 0 994.4 -1.2 31
2017-11-07 15:00:00 19.3 6 Sudeste 18 Este 0 994.5 -1.6 32
2017-11-07 14:00:00 17.9 7 Sudeste 20 Este 0 995 -1.4 33
2017-11-07 13:00:00 16.3 11 Este 20 Este 0 995.6 -1.2 35
2017-11-07 12:00:00 14.9 10 Este 24 Este 0 996.1 -0.4 38
2017-11-07 11:00:00 13.9 8 Este 19 Sudeste 0 996.4 0.1 44
2017-11-07 10:00:00 9.9 6 Sudeste 9 Este 0 996.8 1 92
2017-11-07 09:00:00 4.7 0 Calma 5 Sudoeste 0 996.5 0.8 99
2017-11-07 08:00:00 3.2 0 Calma 4 Oeste 0 996.3 0.9 99
2017-11-07 07:00:00 3.7 2 Sudoeste 7 Oeste 0 995.8 0.1 99
2017-11-07 06:00:00 4 4 Noroeste 12 Este 0 995.7 -0.1 99
2017-11-07 05:00:00 4.5 3 Sudeste 7 Sudeste 0 995.4 -0.6 98
2017-11-07 04:00:00 3.9 0 Calma 6 Este 0 995.7 -0.4 97
2017-11-07 03:00:00 4.8 2 Sudeste 9 Este 0 995.8 -0.3 97
2017-11-07 02:00:00 5.1 4 Este 6 Este 0 996 -0.1 95
2017-11-07 01:00:00 5.6 0 Calma 5 Sudeste 0 996.1 0.3 94
2017-11-07 00:00:00 6 3 Sudeste 5 Sudeste 0 996.1 0.6 91
2017-11-06 23:00:00 6.9 2 Sudeste 3 Este 0 996.1 0.8 87
2017-11-06 22:00:00 7.5 0 Calma 8 Este 0 995.8 0.6 81
2017-11-06 21:00:00 8.5 4 Este 7 Este 0 995.5 0.6 75
2017-11-06 20:00:00 10 3 Este 8 Este 0 995.3 0.4 65
2017-11-06 19:00:00 11.3 2 Sudeste 8 Este 0 995.2 0.1 56
2017-11-06 18:00:00 15.6 5 Este 20 Este 0 994.9 -0.9 38
2017-11-06 17:00:00 18.5 11 Este 25 Este 0 994.9 -2 31
2017-11-06 16:00:00 18.7 14 Este 27 Este 0 995.1 -2.8 31
2017-11-06 15:00:00 18.3 13 Este 32 Sudeste 0 995.8 -3.2 33
2017-11-06 14:00:00 18.1 15 Este 33 Sudeste 0 996.9 -2.7 36
2017-11-06 13:00:00 17.2 18 Este 38 Este 0 997.9 -2 39
2017-11-06 12:00:00 15.6 17 Este 32 Sudeste 0 999 -0.5 46
2017-11-06 11:00:00 14.5 13 Este 27 Este 0 999.6 0.8 54
2017-11-06 10:00:00 12.1 13 Este 22 Sudeste 0 999.9 1.2 64
2017-11-06 09:00:00 9.2 10 Este 17 Sudeste 0 999.5 1.2 81
2017-11-06 08:00:00 7.2 3 Sudeste 13 Este 0 998.8 0.4 85
2017-11-06 07:00:00 7.5 9 Este 12 Este 0 998.7 0.2 83
2017-11-06 06:00:00 8.2 7 Este 12 Sudeste 0 998.3 -0.6 79
2017-11-06 05:00:00 8.3 4 Sudeste 10 Este 0 998.4 -0.6 82
2017-11-06 04:00:00 8.7 8 Este 10 Este 0 998.5 -0.4 87
2017-11-06 03:00:00 8.6 2 Este 13 Este 0 998.9 -0.1 84
2017-11-06 02:00:00 9.7 2 Este 6 Sudeste 0 999 0.4 80
2017-11-06 01:00:00 11.5 2 Este 12 Este 0 998.9 1 72
2017-11-06 00:00:00 12.3 3 Este 6 Sudeste 0 999 1.6 95
2017-11-05 23:00:00 13.7 0 Calma 5 Este 0 998.6 1.5 94
2017-11-05 22:00:00 13.7 0 Calma 4 Este 0 997.9 1.3 94
2017-11-05 21:00:00 13.4 0 Calma 6 Este 0 997.4 1.2 92
2017-11-05 20:00:00 13.5 2 Oeste 6 Oeste 0 997.1 0.9 88
2017-11-05 19:00:00 14.7 0 Calma 6 Oeste 0 996.6 0.7 81
2017-11-05 18:00:00 16.9 0 Calma 12 Oeste 0 996.2 0 73
2017-11-05 17:00:00 20.2 6 Oeste 13 Oeste 0 996.2 -0.4 58
2017-11-05 16:00:00 18.2 7 Oeste 14 Oeste 0 995.9 -1.1 67
2017-11-05 15:00:00 19.6 10 Oeste 16 Oeste 0 996.2 -1.4 61
2017-11-05 14:00:00 20.5 4 Oeste 10 Noroeste 0 996.6 -1.1 59
2017-11-05 13:00:00 18.6 0 Calma 12 Sudoeste 0 997 -0.2 70
2017-11-05 12:00:00 16.6 2 Sur 9 Sudeste 0 997.6 0.7 82
2017-11-05 11:00:00 14 3 Oeste 9 Sudoeste 0 997.7 1.9 97
2017-11-05 10:00:00 13.6 5 Sudoeste 12 Oeste 0 997.2 1.8 99
2017-11-05 09:00:00 12.9 8 Oeste 14 Oeste 0 996.9 2.1 99
2017-11-05 08:00:00 12.2 0 Calma 5 Noroeste 0 995.8 1.5 99
2017-11-05 07:00:00 11.7 4 Oeste 6 Oeste 0 995.4 1.1 99
2017-11-05 06:00:00 12.4 3 Sudoeste 9 Sudoeste 0 994.8 0.9 99
2017-11-05 05:00:00 12.7 4 Oeste 8 Oeste 0 994.3 0.5 99
2017-11-05 04:00:00 12.8 7 Oeste 15 Noroeste 0 994.3 0.5 99
2017-11-05 03:00:00 13.3 9 Noroeste 20 Oeste 0 993.9 0.6 98
2017-11-05 02:00:00 13.9 4 Oeste 10 Noroeste 0 993.8 0.9 97
2017-11-05 01:00:00 14.2 3 Noroeste 12 Noroeste 0 993.8 1.6 97
2017-11-05 00:00:00 14.3 6 Noroeste 14 Noroeste 0 993.3 1.6 97
2017-11-04 23:00:00 14.4 6 Oeste 21 Sudoeste 0 992.9 1.6 97
2017-11-04 22:00:00 14.6 10 Oeste 18 Oeste 0.3 992.2 1.5 97
2017-11-04 21:00:00 14.9 9 Noroeste 17 Oeste 0.5 991.7 1.9 94
2017-11-04 20:00:00 15.1 5 Oeste 15 Oeste 0 991.3 2.4 94
2017-11-04 19:00:00 15.1 9 Oeste 24 Oeste 2 990.7 2.2 94
2017-11-04 18:00:00 16.6 15 Oeste 33 Oeste 0 989.8 1.4 76
2017-11-04 17:00:00 18.4 21 Oeste 34 Oeste 0 988.9 0 67
2017-11-04 16:00:00 18.2 22 Oeste 36 Sudoeste 0 988.5 -0.8 67
2017-11-04 15:00:00 17.9 14 Sudoeste 23 Sudoeste 0 988.4 -1.6 79
2017-11-04 14:00:00 15.7 9 Oeste 16 Noroeste 3.2 988.9 -0.8 91
2017-11-04 13:00:00 15.5 13 Noroeste 18 Noroeste 1.7 989.3 -0.5 84
2017-11-04 12:00:00 18.1 7 Oeste 13 Oeste 0 990 0.8 80
2017-11-04 11:00:00 14.6 2 Oeste 6 Noroeste 0 989.7 0.8 99
2017-11-04 10:00:00 13.7 0 Calma 21 Oeste 0 989.8 1.1 99
2017-11-04 09:00:00 12.7 2 Noroeste 22 Oeste 1.9 989.2 0.4 99
2017-11-04 08:00:00 12.4 2 Sudoeste 13 Sur 0.1 988.9 0.2 99
2017-11-04 07:00:00 12.4 8 Sudeste 15 Sudeste 1.4 988.7 0.3 99
2017-11-04 06:00:00 12.6 3 Oeste 13 Oeste 2.4 988.8 -0.1 99
2017-11-04 05:00:00 12.2 2 Noroeste 13 Noroeste 6.5 988.7 -0.6 99
2017-11-04 04:00:00 12.5 8 Noroeste 29 Noroeste 0 988.4 -1.2 99
2017-11-04 03:00:00 11.5 0 Calma 5 Noroeste 0.1 988.9 -0.7 99
2017-11-04 02:00:00 12.2 3 Sudeste 5 Oeste 0 989.3 -0.3 99
2017-11-04 01:00:00 13 4 Oeste 7 Sur 0 989.6 0.2 99
2017-11-04 00:00:00 13.2 2 Sur 5 Sur 0 989.6 0 99
2017-11-03 23:00:00 13.1 0 Calma 6 Sudoeste 0 989.6 0.4 98
2017-11-03 22:00:00 14 0 Calma 6 Sudoeste 0.1 989.4 0.9 98
2017-11-03 21:00:00 15 0 Calma 13 Oeste 0.3 989.6 1.3 95
2017-11-03 20:00:00 15.9 7 Oeste 17 Oeste 0.2 989.2 1 91
2017-11-03 19:00:00 16.4 4 Noroeste 12 Oeste 0 988.5 0.1 83
2017-11-03 18:00:00 17 7 Oeste 13 Oeste 0.1 988.3 -0.8 82
2017-11-03 17:00:00 18.6 3 Noroeste 15 Noroeste 0 988.2 -0.9 65
2017-11-03 16:00:00 20.6 6 Sudoeste 18 Oeste 0 988.4 -1.6 53
2017-11-03 15:00:00 20.9 4 Sudoeste 10 Sudoeste 0 989.1 -2 53
2017-11-03 14:00:00 20.8 3 Este 10 Sudeste 0 989.1 -2.2 54
2017-11-03 13:00:00 20 7 Este 15 Sudeste 0 990 -1.5 57
2017-11-03 12:00:00 18.5 6 Este 15 Este 0 991.1 -0.1 63
2017-11-03 11:00:00 18.1 9 Sudeste 19 Sudeste 0 991.3 0.6 65
2017-11-03 10:00:00 14.7 3 Este 9 Este 0 991.5 1.3 83
2017-11-03 09:00:00 12 0 Calma 7 Este 0 991.2 0.6 96
2017-11-03 08:00:00 9.7 2 Sudeste 6 Oeste 0 990.7 0.6 96
2017-11-03 07:00:00 10.2 4 Este 7 Este 0 990.2 -0.5 96
2017-11-03 06:00:00 10.3 0 Calma 5 Este 0 990.6 -0.1 93
2017-11-03 05:00:00 11.3 4 Este 6 Este 0 990.1 -0.5 91
2017-11-03 04:00:00 12.2 3 Sudoeste 5 Oeste 0 990.7 -0.5 87
2017-11-03 03:00:00 12.9 0 Calma 10 Este 0 990.7 -0.5 85
2017-11-03 02:00:00 12.5 0 Calma 6 Oeste 0 990.6 -0.8 84
2017-11-03 01:00:00 13.1 0 Calma 5 Norte 0 991.2 -0.4 80
2017-11-03 00:00:00 13.6 3 Este 6 Este 0 991.2 -0.4 77
2017-11-02 23:00:00 14 0 Calma 5 Este 0 991.4 0.3 77
2017-11-02 22:00:00 14.4 3 Sudeste 8 Este 0 991.6 0.5 72
2017-11-02 21:00:00 15.3 0 Calma 4 Noroeste 0 991.6 0.6 66
2017-11-02 20:00:00 16.3 3 Sudeste 4 Este 0 991.1 -0.1 60
2017-11-02 19:00:00 17.3 0 Calma -- -- 0 991.1 -0.4 54
2017-11-02 18:00:00 19.5 0 Calma 4 Sudoeste 0 991 -0.9 47
2017-11-02 17:00:00 22.2 2 Sur 8 Sudeste 0 991.2 -1.2 40
2017-11-02 16:00:00 22.6 6 Sudoeste 15 Sudoeste 0 991.5 -1.9 38
2017-11-02 15:00:00 23.4 3 Oeste 11 Oeste 0 991.9 -2.4 39
2017-11-02 14:00:00 23 0 Calma 10 Sudeste 0 992.4 -2.5 40
2017-11-02 13:00:00 23.2 3 Sudeste 12 Este 0 993.4 -1.8 43
2017-11-02 12:00:00 21.7 3 Sudeste 9 Sudeste 0 994.3 -0.9 49
2017-11-02 11:00:00 18.4 2 Sudeste 8 Sudeste 0 994.9 0.4 62
2017-11-02 10:00:00 13.7 0 Calma 3 Sudoeste 0 995.2 1 89
2017-11-02 09:00:00 10.7 0 Calma 5 Sur 0 995.2 0.9 98
2017-11-02 08:00:00 8 2 Oeste 4 Oeste 0 994.5 0.4 98
2017-11-02 07:00:00 7.8 0 Calma 4 Este 0 994.2 0 98
2017-11-02 06:00:00 8.1 0 Calma 7 Sudoeste 0 994.3 -0.1 97
2017-11-02 05:00:00 8.5 0 Calma 6 Sudeste 0 994.1 -0.1 95
2017-11-02 04:00:00 9.2 4 Sudeste 6 Sudeste 0 994.2 0 94
2017-11-02 03:00:00 9.4 0 Calma 4 Sudeste 0 994.4 0.1 92
2017-11-02 02:00:00 10.3 0 Calma 7 Este 0 994.2 -0.2 91
2017-11-02 01:00:00 10.1 0 Calma 6 Noroeste 0 994.2 0.1 87
2017-11-02 00:00:00 11.8 0 Calma 4 Este 0 994.3 0.6 85
2017-11-01 23:00:00 12.8 0 Calma 7 Este 0 994.4 0.9 75
2017-11-01 22:00:00 14.4 2 Norte 5 Noroeste 0 994.1 0.7 71
2017-11-01 21:00:00 14.9 3 Oeste 8 Oeste 0 993.7 1 64
2017-11-01 20:00:00 15.7 0 Calma 6 Sudoeste 0 993.5 0.8 58
2017-11-01 19:00:00 17.8 2 Oeste 7 Oeste 0 993.4 0.4 50
2017-11-01 18:00:00 21.2 5 Sudoeste 10 Noroeste 0 992.7 -0.6 39
2017-11-01 17:00:00 26.3 6 Oeste 11 Noroeste 0 992.7 -1.5 31
2017-11-01 16:00:00 26.1 2 Sudoeste 10 Sudoeste 0 993 -2.2 31
2017-11-01 15:00:00 25.6 4 Este 12 Este 0 993.3 -2.9 32
2017-11-01 14:00:00 25.5 4 Sur 16 Sudeste 0 994.2 -2.5 33
2017-11-01 13:00:00 23.6 6 Este 17 Este 0 995.2 -1.8 40
2017-11-01 12:00:00 21.5 9 Sudeste 19 Este 0 996.2 -0.7 47
2017-11-01 11:00:00 18.9 10 Este 19 Este 0 996.7 0.5 57
2017-11-01 10:00:00 15.4 8 Este 13 Este 0 997 1.1 84
2017-11-01 09:00:00 9.8 0 Calma 6 Este 0 996.9 1.2 99
2017-11-01 08:00:00 8 0 Calma 0 Calma 0 996.2 0.4 99
2017-11-01 07:00:00 7.7 0 Calma 2 Noroeste 0 995.9 0.1 99
2017-11-01 06:00:00 7.9 0 Calma 4 Nordeste 0 995.7 -0.3 98
2017-11-01 05:00:00 8.6 0 Calma 3 Este 0 995.8 0 97
2017-11-01 04:00:00 8.6 0 Calma 5 Este 0 995.8 0 95
2017-11-01 03:00:00 9.3 0 Calma 7 Este 0 996 0.3 93
2017-11-01 02:00:00 10.5 2 Este 6 Este 0 995.8 0.3 91
2017-11-01 01:00:00 11.3 0 Calma 0 Calma 0 995.8 0.8 84
2017-11-01 00:00:00 13.2 2 Oeste 8 Norte 0 995.7 1.2 75
2017-10-31 23:00:00 15.4 8 Sudoeste 12 Sudoeste 0 995.5 1.5 71
2017-10-31 22:00:00 16 9 Oeste 12 Oeste 0 995 1.5 67
2017-10-31 21:00:00 15.3 10 Noroeste 12 Oeste 0 994.5 1.2 66
2017-10-31 20:00:00 15.7 0 Calma 5 Noroeste 0 994 1 62
2017-10-31 19:00:00 17.5 3 Oeste 5 Oeste 0 993.5 0.5 53
2017-10-31 18:00:00 21.6 4 Oeste 11 Noroeste 0 993.3 -0.2 42
2017-10-31 17:00:00 25 5 Oeste 11 Sudoeste 0 993 -0.9 35
2017-10-31 16:00:00 25 4 Norte 12 Noroeste 0 993 -1.5 36
2017-10-31 15:00:00 25 3 Norte 9 Sudeste 0 993.5 -1.7 36
2017-10-31 14:00:00 24.2 0 Calma 12 Este 0 993.9 -1.6 39
2017-10-31 13:00:00 23.5 3 Este 12 Este 0 994.5 -1.2 42
2017-10-31 12:00:00 21.3 3 Este 8 Este 0 995.2 0.4 46
2017-10-31 11:00:00 18.5 0 Calma 8 Este 0 995.5 1.5 55
2017-10-31 10:00:00 14.2 0 Calma 4 Este 0 995.7 2.2 81
2017-10-31 09:00:00 8.6 0 Calma 4 Oeste 0 994.8 1.7 97
2017-10-31 08:00:00 6.4 3 Sudeste 7 Sudeste 0 994 1.4 97
2017-10-31 07:00:00 6.5 0 Calma 4 Sudeste 0 993.5 1.1 97
2017-10-31 06:00:00 6.6 0 Calma 4 Oeste 0 993.1 1.1 95
2017-10-31 05:00:00 6.9 0 Calma 3 Sudoeste 0 992.6 0.5 94
2017-10-31 04:00:00 7.5 0 Calma 2 Oeste 0 992.4 0.1 92
2017-10-31 03:00:00 7.4 0 Calma 6 Este 0 992 -0.3 88
2017-10-31 02:00:00 8.6 4 Este 5 Este 0 992.1 -0.3 86
2017-10-31 01:00:00 9 0 Calma 6 Este 0 992.3 0.3 82
2017-10-31 00:00:00 9.6 0 Calma 5 Sudeste 0 992.3 1.2 78
2017-10-30 23:00:00 11 0 Calma 6 Este 0 992.4 1.9 77
2017-10-30 22:00:00 11.5 0 Calma 8 Este 0 992 1.9 69
2017-10-30 21:00:00 12.7 0 Calma 5 Sudeste 0 991.1 1.5 61
2017-10-30 20:00:00 14.8 4 Sudeste 6 Este 0 990.5 1.2 52
2017-10-30 19:00:00 17.4 0 Calma 6 Sudoeste 0 990.1 0.6 42
2017-10-30 18:00:00 22.3 3 Sur 7 Este 0 989.6 -0.1 30
2017-10-30 17:00:00 26.5 5 Sudeste 12 Este 0 989.3 -1.1 26
2017-10-30 16:00:00 26.4 4 Sudeste 15 Este 0 989.5 -1.8 27
2017-10-30 15:00:00 25.9 6 Sudeste 17 Este 0 989.7 -2.4 28
2017-10-30 14:00:00 24.1 6 Este 18 Este 0 990.4 -2.3 34
2017-10-30 13:00:00 22.8 8 Este 16 Este 0 991.3 -1.8 38
2017-10-30 12:00:00 20.8 8 Este 15 Este 0 992.1 -0.8 40
2017-10-30 11:00:00 17.5 7 Este 14 Este 0 992.7 0.2 56
2017-10-30 10:00:00 -- -- -- -- -- -- -- -- --
2017-10-30 09:00:00 -- -- -- -- -- -- -- -- --
2017-10-30 08:00:00 -- -- -- -- -- -- -- -- --
2017-10-30 07:00:00 -- -- -- -- -- -- -- -- --
2017-10-30 06:00:00 -- -- -- -- -- -- -- -- --
2017-10-30 05:00:00 -- -- -- -- -- -- -- -- --
2017-10-30 04:00:00 -- -- -- -- -- -- -- -- --
2017-10-30 03:00:00 -- -- -- -- -- -- -- -- --
2017-10-30 02:00:00 -- -- -- -- -- -- -- -- --
2017-10-30 01:00:00 -- -- -- -- -- -- -- -- --
2017-10-30 00:00:00 -- -- -- -- -- -- -- -- --
2017-10-29 23:00:00 -- -- -- -- -- -- -- -- --
2017-10-29 22:00:00 -- -- -- -- -- -- -- -- --
2017-10-29 21:00:00 -- -- -- -- -- -- -- -- --
2017-10-29 20:00:00 -- -- -- -- -- -- -- -- --
2017-10-29 19:00:00 -- -- -- -- -- -- -- -- --
2017-10-29 18:00:00 -- -- -- -- -- -- -- -- --
2017-10-29 17:00:00 -- -- -- -- -- -- -- -- --
2017-10-29 16:00:00 -- -- -- -- -- -- -- -- --
2017-10-29 15:00:00 -- -- -- -- -- -- -- -- --
2017-10-29 14:00:00 -- -- -- -- -- -- -- -- --
2017-10-29 13:00:00 -- -- -- -- -- -- -- -- --
2017-10-29 12:00:00 -- -- -- -- -- -- -- -- --
2017-10-29 11:00:00 -- -- -- -- -- -- -- -- --
2017-10-29 10:00:00 -- -- -- -- -- -- -- -- --
2017-10-29 09:00:00 -- -- -- -- -- -- -- -- --
2017-10-29 08:00:00 -- -- -- -- -- -- -- -- --
2017-10-29 07:00:00 -- -- -- -- -- -- -- -- --
2017-10-29 06:00:00 -- -- -- -- -- -- -- -- --
2017-10-29 05:00:00 -- -- -- -- -- -- -- -- --
2017-10-29 04:00:00 -- -- -- -- -- -- -- -- --
2017-10-29 03:00:00 -- -- -- -- -- -- -- -- --
2017-10-29 02:00:00 -- -- -- -- -- -- -- -- --
2017-10-29 01:00:00 -- -- -- -- -- -- -- -- --
2017-10-29 00:00:00 -- -- -- -- -- -- -- -- --
2017-10-28 23:00:00 -- -- -- -- -- -- -- -- --
2017-10-28 22:00:00 -- -- -- -- -- -- -- -- --
2017-10-28 21:00:00 -- -- -- -- -- -- -- -- --
2017-10-28 20:00:00 -- -- -- -- -- -- -- -- --
2017-10-28 19:00:00 -- -- -- -- -- -- -- -- --
2017-10-28 18:00:00 -- -- -- -- -- -- -- -- --
2017-10-28 17:00:00 -- -- -- -- -- -- -- -- --
2017-10-28 16:00:00 -- -- -- -- -- -- -- -- --
2017-10-28 15:00:00 -- -- -- -- -- -- -- -- --
2017-10-28 14:00:00 -- -- -- -- -- -- -- -- --
2017-10-28 13:00:00 -- -- -- -- -- -- -- -- --
2017-10-28 12:00:00 -- -- -- -- -- -- -- -- --
2017-10-28 11:00:00 -- -- -- -- -- -- -- -- --
2017-10-28 10:00:00 -- -- -- -- -- -- -- -- --
2017-10-28 09:00:00 -- -- -- -- -- -- -- -- --
2017-10-28 08:00:00 -- -- -- -- -- -- -- -- --
2017-10-28 07:00:00 -- -- -- -- -- -- -- -- --
2017-10-28 06:00:00 -- -- -- -- -- -- -- -- --
2017-10-28 05:00:00 -- -- -- -- -- -- -- -- --
2017-10-28 04:00:00 -- -- -- -- -- -- -- -- --
2017-10-28 03:00:00 -- -- -- -- -- -- -- -- --
2017-10-28 02:00:00 -- -- -- -- -- -- -- -- --
2017-10-28 01:00:00 -- -- -- -- -- -- -- -- --
2017-10-28 00:00:00 -- -- -- -- -- -- -- -- --
2017-10-27 23:00:00 -- -- -- -- -- -- -- -- --
2017-10-27 22:00:00 -- -- -- -- -- -- -- -- --
2017-10-27 21:00:00 -- -- -- -- -- -- -- -- --
2017-10-27 20:00:00 -- -- -- -- -- -- -- -- --
2017-10-27 19:00:00 -- -- -- -- -- -- -- -- --
2017-10-27 18:00:00 -- -- -- -- -- -- -- -- --
2017-10-27 17:00:00 -- -- -- -- -- -- -- -- --
2017-10-27 16:00:00 -- -- -- -- -- -- -- -- --
2017-10-27 15:00:00 -- -- -- -- -- -- -- -- --
2017-10-27 14:00:00 -- -- -- -- -- -- -- -- --
2017-10-27 13:00:00 -- -- -- -- -- -- -- -- --
2017-10-27 12:00:00 -- -- -- -- -- -- -- -- --
2017-10-27 11:00:00 -- -- -- -- -- -- -- -- --
2017-10-27 10:00:00 -- -- -- -- -- -- -- -- --
2017-10-27 09:00:00 -- -- -- -- -- -- -- -- --
2017-10-27 08:00:00 -- -- -- -- -- -- -- -- --
2017-10-27 07:00:00 -- -- -- -- -- -- -- -- --
2017-10-27 06:00:00 -- -- -- -- -- -- -- -- --
2017-10-27 05:00:00 -- -- -- -- -- -- -- -- --
2017-10-27 04:00:00 -- -- -- -- -- -- -- -- --
2017-10-27 03:00:00 -- -- -- -- -- -- -- -- --
2017-10-27 02:00:00 -- -- -- -- -- -- -- -- --
2017-10-27 01:00:00 -- -- -- -- -- -- -- -- --
2017-10-27 00:00:00 -- -- -- -- -- -- -- -- --
2017-10-26 23:00:00 -- -- -- -- -- -- -- -- --
2017-10-26 22:00:00 -- -- -- -- -- -- -- -- --
2017-10-26 21:00:00 -- -- -- -- -- -- -- -- --
2017-10-26 20:00:00 -- -- -- -- -- -- -- -- --
2017-10-26 19:00:00 -- -- -- -- -- -- -- -- --
2017-10-26 18:00:00 -- -- -- -- -- -- -- -- --
2017-10-26 17:00:00 -- -- -- -- -- -- -- -- --
2017-10-26 16:00:00 -- -- -- -- -- -- -- -- --
2017-10-26 15:00:00 -- -- -- -- -- -- -- -- --
2017-10-26 14:00:00 -- -- -- -- -- -- -- -- --
2017-10-26 13:00:00 -- -- -- -- -- -- -- -- --
2017-10-26 12:00:00 -- -- -- -- -- -- -- -- --
2017-10-26 11:00:00 -- -- -- -- -- -- -- -- --
2017-10-26 10:00:00 -- -- -- -- -- -- -- -- --
2017-10-26 09:00:00 -- -- -- -- -- -- -- -- --
2017-10-26 08:00:00 -- -- -- -- -- -- -- -- --
2017-10-26 07:00:00 -- -- -- -- -- -- -- -- --
2017-10-26 06:00:00 -- -- -- -- -- -- -- -- --
2017-10-26 05:00:00 -- -- -- -- -- -- -- -- --
2017-10-26 04:00:00 -- -- -- -- -- -- -- -- --
2017-10-26 03:00:00 -- -- -- -- -- -- -- -- --
2017-10-26 02:00:00 -- -- -- -- -- -- -- -- --
2017-10-26 01:00:00 -- -- -- -- -- -- -- -- --
2017-10-26 00:00:00 -- -- -- -- -- -- -- -- --
2017-10-25 23:00:00 -- -- -- -- -- -- -- -- --
2017-10-25 22:00:00 -- -- -- -- -- -- -- -- --
2017-10-25 21:00:00 -- -- -- -- -- -- -- -- --
2017-10-25 20:00:00 -- -- -- -- -- -- -- -- --
2017-10-25 19:00:00 -- -- -- -- -- -- -- -- --
2017-10-25 18:00:00 -- -- -- -- -- -- -- -- --
2017-10-25 17:00:00 -- -- -- -- -- -- -- -- --
2017-10-25 16:00:00 -- -- -- -- -- -- -- -- --
2017-10-25 15:00:00 -- -- -- -- -- -- -- -- --
2017-10-25 14:00:00 -- -- -- -- -- -- -- -- --
2017-10-25 13:00:00 -- -- -- -- -- -- -- -- --
2017-10-25 12:00:00 -- -- -- -- -- -- -- -- --
2017-10-25 11:00:00 -- -- -- -- -- -- -- -- --
2017-10-25 10:00:00 -- -- -- -- -- -- -- -- --
2017-10-25 09:00:00 -- -- -- -- -- -- -- -- --
2017-10-25 08:00:00 -- -- -- -- -- -- -- -- --
2017-10-25 07:00:00 -- -- -- -- -- -- -- -- --
2017-10-25 06:00:00 -- -- -- -- -- -- -- -- --
2017-10-25 05:00:00 -- -- -- -- -- -- -- -- --
2017-10-25 04:00:00 -- -- -- -- -- -- -- -- --
2017-10-25 03:00:00 -- -- -- -- -- -- -- -- --
2017-10-25 02:00:00 -- -- -- -- -- -- -- -- --
2017-10-25 01:00:00 -- -- -- -- -- -- -- -- --
2017-10-25 00:00:00 -- -- -- -- -- -- -- -- --